This is the latest recevied weather packets stored in our database for station/object N4OGP-WX. If no packets are shown the sender has not sent any weather packets the latest 10 day(s).
| Time | Temp. | Humidity | Pressure | Rain* | Wind** | Luminosity | Snow |
|---|---|---|---|---|---|---|---|
| 1777469299 | 23.89° C | 42% | 1020.4 hPa | 0 mm | - | - | - |
| 1777469239 | 24.44° C | 91% | 1014 hPa | 0 mm | - | - | - |
| 1777469179 | 24.44° C | 91% | 1013.9 hPa | 0 mm | - | - | - |
| 1777469119 | 23.89° C | 42% | 1020.4 hPa | 0 mm | - | - | - |
| 1777469059 | 23.89° C | 42% | 1020.4 hPa | 0 mm | - | - | - |
| 1777468999 | 24.44° C | 91% | 1013.9 hPa | 0 mm | - | - | - |
| 1777468939 | 24.44° C | 92% | 1013.9 hPa | 0 mm | - | - | - |
| 1777468879 | 24.44° C | 92% | 1013.9 hPa | 0 mm | - | - | - |
| 1777468789 | 23.89° C | 42% | 1020.4 hPa | 0 mm | - | - | - |
| 1777468729 | 24.44° C | 92% | 1014 hPa | 0 mm | - | - | - |
| 1777468669 | 23.89° C | 42% | 1020.4 hPa | 0 mm | - | - | - |
| 1777468609 | 23.89° C | 92% | 1014.1 hPa | 0 mm | - | - | - |
| 1777468519 | 23.89° C | 92% | 1014.1 hPa | 0 mm | - | - | - |
| 1777468459 | 23.89° C | 42% | 1020.4 hPa | 0 mm | - | - | - |
| 1777468399 | 23.89° C | 92% | 1014.1 hPa | 0 mm | - | - | - |
| 1777468309 | 23.89° C | 92% | 1014.1 hPa | 0 mm | - | - | - |
| 1777468249 | 23.89° C | 42% | 1020.4 hPa | 0 mm | - | - | - |
| 1777468189 | 23.89° C | 42% | 1020.4 hPa | 0 mm | - | - | - |
| 1777468129 | 23.89° C | 92% | 1014.1 hPa | 0 mm | - | - | - |
| 1777468069 | 23.89° C | 42% | 1020.4 hPa | 0 mm | - | - | - |
| 1777467979 | 23.89° C | 42% | 1020.4 hPa | 0 mm | - | - | - |
| 1777467919 | 23.89° C | 42% | 1020.4 hPa | 0 mm | - | - | - |
| 1777467859 | 23.89° C | 92% | 1014.1 hPa | 0 mm | - | - | - |
| 1777467769 | 23.89° C | 92% | 1014 hPa | 0 mm | - | - | - |
| 1777467679 | 23.89° C | 42% | 1020.4 hPa | 0 mm | - | - | - |
* Rain latest hour (hover to see other rain measurements)
** Current wind speed in m/s (hover to see current wind gust speed)